Aérodrome :
LOGIN :

S'inscrire | Disclaimer

   EN    FR    IT 

 










Légende :    VFR   VFR Marginal   IFR   IFR Intensif   IFR Très Intensif
Visi : 
Plafond : 
>= 8 km
>= 3000ft
5 à 8 km
1000 à 3000 ft
1500m à 5 km
500 à 1000 ft
800 à 1500m
200 à 500 ft
< 800m
< 200 ft
Symboles :   Orages  Brouillard  Fortes neiges  Fortes précipitations  Vent > 20 kt
SIGMETs :   Divers  Orages  Givrage  Turbulence  Onde Orograph.  Cendres Volcan.






- Altitude de l'aérodrome : 3 ft
- Code IATA : EME


EDWE - Emden

DERNIER METAR :
  • 180220Z AUTO VRB01KT 1500 // FEW082/// 16/16 Q1014

METARs EXPIRÉS :
  • 180150Z AUTO 32003KT 2000 // NCD 16/15 Q1013
  • 180120Z AUTO VRB02KT 2100 // NCD 17/16 Q1014
  • 180050Z AUTO 32002KT 2200 // FEW130/// BKN150/// 17/16 Q1014
  • 180020Z AUTO 29003KT 3600 // BKN140/// 18/16 Q1014
  • 172350Z AUTO 31004KT 3900 // FEW083/// BKN140/// 18/17 Q1014

Prévision TAF périmée.



MET'MAP, la Météo Aéronautique d'un coup d'oeil ! - Copyright ORBIFLY Décembre 2007 - Disclaimer

ORBIFLY MET'MAP TEAM :

Programmation & Développement : Alexandra Zaïnal
Sur une idée originale de : Baudouin d'Aumeries
Assistance à la programmation : Marc-Olivier Méhu
Soutien technique & logistique : Manuel Goepfert

Contact : metmap@orbifly.com




SOURCES & CREDITS :

   NOAA